sensor_id;sensor_type;location;lat;lon;timestamp;pressure;altitude;pressure_sealevel;temperature
22322;BMP180;11328;53.928;18.522;2023-06-04T00:02:21;101041.00;;;12.40
22322;BMP180;11328;53.928;18.522;2023-06-04T00:04:49;101050.00;;;12.40
22322;BMP180;11328;53.928;18.522;2023-06-04T00:07:16;101051.00;;;12.40
22322;BMP180;11328;53.928;18.522;2023-06-04T00:09:43;101041.00;;;12.40
22322;BMP180;11328;53.928;18.522;2023-06-04T00:12:10;101042.00;;;12.40
22322;BMP180;11328;53.928;18.522;2023-06-04T00:14:38;101046.00;;;12.40
22322;BMP180;11328;53.928;18.522;2023-06-04T00:17:05;101049.00;;;12.40
22322;BMP180;11328;53.928;18.522;2023-06-04T00:19:32;101045.00;;;12.40
22322;BMP180;11328;53.928;18.522;2023-06-04T00:22:00;101048.00;;;12.40
22322;BMP180;11328;53.928;18.522;2023-06-04T00:24:27;101047.00;;;12.30
22322;BMP180;11328;53.928;18.522;2023-06-04T00:26:54;101047.00;;;12.30
22322;BMP180;11328;53.928;18.522;2023-06-04T00:29:21;101042.00;;;12.40
22322;BMP180;11328;53.928;18.522;2023-06-04T00:31:48;101042.00;;;12.40
22322;BMP180;11328;53.928;18.522;2023-06-04T00:34:17;101041.00;;;12.40
22322;BMP180;11328;53.928;18.522;2023-06-04T00:36:45;101031.00;;;12.40
22322;BMP180;11328;53.928;18.522;2023-06-04T00:39:12;101032.00;;;12.40
22322;BMP180;11328;53.928;18.522;2023-06-04T00:41:39;101036.00;;;12.40
22322;BMP180;11328;53.928;18.522;2023-06-04T00:44:06;101034.00;;;12.40
22322;BMP180;11328;53.928;18.522;2023-06-04T00:46:35;101029.00;;;12.40
22322;BMP180;11328;53.928;18.522;2023-06-04T00:49:06;101025.00;;;12.40
22322;BMP180;11328;53.928;18.522;2023-06-04T00:51:33;101018.00;;;12.40
22322;BMP180;11328;53.928;18.522;2023-06-04T00:54:03;101024.00;;;12.30
22322;BMP180;11328;53.928;18.522;2023-06-04T00:56:36;101037.00;;;12.30
22322;BMP180;11328;53.928;18.522;2023-06-04T00:59:08;101026.00;;;12.30
22322;BMP180;11328;53.928;18.522;2023-06-04T01:01:55;101020.00;;;12.20
22322;BMP180;11328;53.928;18.522;2023-06-04T01:04:44;101026.00;;;12.10
22322;BMP180;11328;53.928;18.522;2023-06-04T01:07:14;101022.00;;;12.10
22322;BMP180;11328;53.928;18.522;2023-06-04T01:09:44;100992.00;;;12.10
22322;BMP180;11328;53.928;18.522;2023-06-04T01:12:12;101015.00;;;12.00
22322;BMP180;11328;53.928;18.522;2023-06-04T01:14:40;101007.00;;;12.00
22322;BMP180;11328;53.928;18.522;2023-06-04T01:17:15;101020.00;;;11.90
22322;BMP180;11328;53.928;18.522;2023-06-04T01:25:34;101014.00;;;11.70
22322;BMP180;11328;53.928;18.522;2023-06-04T01:28:06;101020.00;;;11.70
22322;BMP180;11328;53.928;18.522;2023-06-04T01:30:40;101021.00;;;11.60
22322;BMP180;11328;53.928;18.522;2023-06-04T01:33:19;101027.00;;;11.50
22322;BMP180;11328;53.928;18.522;2023-06-04T01:35:47;101024.00;;;11.50
22322;BMP180;11328;53.928;18.522;2023-06-04T01:38:15;101025.00;;;11.40
22322;BMP180;11328;53.928;18.522;2023-06-04T01:40:42;101021.00;;;11.30
22322;BMP180;11328;53.928;18.522;2023-06-04T01:43:09;101019.00;;;11.10
22322;BMP180;11328;53.928;18.522;2023-06-04T01:45:39;101022.00;;;11.00
22322;BMP180;11328;53.928;18.522;2023-06-04T01:48:06;101010.00;;;10.90
22322;BMP180;11328;53.928;18.522;2023-06-04T01:50:34;100998.00;;;10.70
22322;BMP180;11328;53.928;18.522;2023-06-04T01:53:01;101022.00;;;10.70
22322;BMP180;11328;53.928;18.522;2023-06-04T01:55:27;101000.00;;;10.70
22322;BMP180;11328;53.928;18.522;2023-06-04T01:57:56;101028.00;;;10.70
22322;BMP180;11328;53.928;18.522;2023-06-04T02:00:23;101022.00;;;10.60
22322;BMP180;11328;53.928;18.522;2023-06-04T02:02:50;101004.00;;;10.50
22322;BMP180;11328;53.928;18.522;2023-06-04T02:05:17;101016.00;;;10.40
22322;BMP180;11328;53.928;18.522;2023-06-04T02:07:46;101011.00;;;10.40
22322;BMP180;11328;53.928;18.522;2023-06-04T02:10:18;101023.00;;;10.30
22322;BMP180;11328;53.928;18.522;2023-06-04T02:13:01;101013.00;;;10.20
22322;BMP180;11328;53.928;18.522;2023-06-04T02:15:32;101017.00;;;10.00
22322;BMP180;11328;53.928;18.522;2023-06-04T02:20:47;101002.00;;;9.80
22322;BMP180;11328;53.928;18.522;2023-06-04T02:23:16;101013.00;;;9.80
22322;BMP180;11328;53.928;18.522;2023-06-04T02:25:45;101016.00;;;9.70
22322;BMP180;11328;53.928;18.522;2023-06-04T02:28:13;101017.00;;;9.70
22322;BMP180;11328;53.928;18.522;2023-06-04T02:30:40;101016.00;;;9.60
22322;BMP180;11328;53.928;18.522;2023-06-04T02:33:07;101005.00;;;9.70
22322;BMP180;11328;53.928;18.522;2023-06-04T02:35:37;100997.00;;;9.70
22322;BMP180;11328;53.928;18.522;2023-06-04T02:38:04;101021.00;;;9.60
22322;BMP180;11328;53.928;18.522;2023-06-04T02:40:31;101016.00;;;9.60
22322;BMP180;11328;53.928;18.522;2023-06-04T02:42:58;101009.00;;;9.60
22322;BMP180;11328;53.928;18.522;2023-06-04T02:45:25;101017.00;;;9.40
22322;BMP180;11328;53.928;18.522;2023-06-04T02:47:52;101014.00;;;9.20
22322;BMP180;11328;53.928;18.522;2023-06-04T02:50:19;101010.00;;;9.10
22322;BMP180;11328;53.928;18.522;2023-06-04T02:52:46;101005.00;;;9.00
22322;BMP180;11328;53.928;18.522;2023-06-04T02:55:13;101012.00;;;9.00
22322;BMP180;11328;53.928;18.522;2023-06-04T02:57:42;101014.00;;;8.90
22322;BMP180;11328;53.928;18.522;2023-06-04T03:00:12;101008.00;;;8.90
22322;BMP180;11328;53.928;18.522;2023-06-04T03:02:43;101011.00;;;8.90
22322;BMP180;11328;53.928;18.522;2023-06-04T03:05:13;101001.00;;;8.90
22322;BMP180;11328;53.928;18.522;2023-06-04T03:07:42;100999.00;;;8.90
22322;BMP180;11328;53.928;18.522;2023-06-04T03:10:12;100998.00;;;8.90
22322;BMP180;11328;53.928;18.522;2023-06-04T03:12:39;100998.00;;;9.00
22322;BMP180;11328;53.928;18.522;2023-06-04T03:15:07;100995.00;;;9.00
22322;BMP180;11328;53.928;18.522;2023-06-04T03:17:34;100987.00;;;9.00
22322;BMP180;11328;53.928;18.522;2023-06-04T03:20:01;101007.00;;;9.00
22322;BMP180;11328;53.928;18.522;2023-06-04T03:22:30;101001.00;;;9.00
22322;BMP180;11328;53.928;18.522;2023-06-04T03:24:57;100997.00;;;9.10
22322;BMP180;11328;53.928;18.522;2023-06-04T03:27:24;100998.00;;;9.10
22322;BMP180;11328;53.928;18.522;2023-06-04T03:29:52;100997.00;;;9.20
22322;BMP180;11328;53.928;18.522;2023-06-04T03:32:19;100997.00;;;9.40
22322;BMP180;11328;53.928;18.522;2023-06-04T03:34:46;100998.00;;;9.40
22322;BMP180;11328;53.928;18.522;2023-06-04T03:37:13;100994.00;;;9.50
22322;BMP180;11328;53.928;18.522;2023-06-04T03:39:39;100987.00;;;9.60
22322;BMP180;11328;53.928;18.522;2023-06-04T03:42:06;100990.00;;;9.70
22322;BMP180;11328;53.928;18.522;2023-06-04T03:44:33;100995.00;;;9.80
22322;BMP180;11328;53.928;18.522;2023-06-04T03:47:00;100985.00;;;9.90
22322;BMP180;11328;53.928;18.522;2023-06-04T03:49:27;100999.00;;;10.00
22322;BMP180;11328;53.928;18.522;2023-06-04T03:51:54;101003.00;;;10.10
22322;BMP180;11328;53.928;18.522;2023-06-04T03:54:22;101004.00;;;10.20
22322;BMP180;11328;53.928;18.522;2023-06-04T03:56:49;101000.00;;;10.30
22322;BMP180;11328;53.928;18.522;2023-06-04T03:59:16;100989.00;;;10.40
22322;BMP180;11328;53.928;18.522;2023-06-04T04:01:43;101001.00;;;10.50
22322;BMP180;11328;53.928;18.522;2023-06-04T04:04:10;100998.00;;;10.60
22322;BMP180;11328;53.928;18.522;2023-06-04T04:06:38;101000.00;;;10.70
22322;BMP180;11328;53.928;18.522;2023-06-04T04:09:05;100994.00;;;10.80
22322;BMP180;11328;53.928;18.522;2023-06-04T04:11:33;100999.00;;;10.90
22322;BMP180;11328;53.928;18.522;2023-06-04T04:14:00;101002.00;;;11.10
22322;BMP180;11328;53.928;18.522;2023-06-04T04:16:27;101003.00;;;11.20
22322;BMP180;11328;53.928;18.522;2023-06-04T04:18:55;100994.00;;;11.40
22322;BMP180;11328;53.928;18.522;2023-06-04T04:21:22;100985.00;;;11.50
22322;BMP180;11328;53.928;18.522;2023-06-04T04:23:50;100990.00;;;11.70
22322;BMP180;11328;53.928;18.522;2023-06-04T04:26:18;101000.00;;;12.00
22322;BMP180;11328;53.928;18.522;2023-06-04T04:28:45;101005.00;;;12.10
22322;BMP180;11328;53.928;18.522;2023-06-04T04:31:12;101001.00;;;12.20
22322;BMP180;11328;53.928;18.522;2023-06-04T04:33:39;100997.00;;;12.30
22322;BMP180;11328;53.928;18.522;2023-06-04T04:36:07;101006.00;;;12.30
22322;BMP180;11328;53.928;18.522;2023-06-04T04:38:41;100998.00;;;12.30
22322;BMP180;11328;53.928;18.522;2023-06-04T04:41:08;100997.00;;;12.40
22322;BMP180;11328;53.928;18.522;2023-06-04T04:43:36;100994.00;;;12.50
22322;BMP180;11328;53.928;18.522;2023-06-04T04:46:07;100994.00;;;12.70
22322;BMP180;11328;53.928;18.522;2023-06-04T04:48:34;100993.00;;;12.70
22322;BMP180;11328;53.928;18.522;2023-06-04T04:51:01;100995.00;;;12.80
22322;BMP180;11328;53.928;18.522;2023-06-04T04:53:28;100994.00;;;12.90
22322;BMP180;11328;53.928;18.522;2023-06-04T04:55:55;100998.00;;;13.10
22322;BMP180;11328;53.928;18.522;2023-06-04T04:58:22;100999.00;;;13.10
22322;BMP180;11328;53.928;18.522;2023-06-04T05:00:49;100997.00;;;13.20
22322;BMP180;11328;53.928;18.522;2023-06-04T05:03:16;100989.00;;;13.40
22322;BMP180;11328;53.928;18.522;2023-06-04T05:05:43;100997.00;;;13.60
22322;BMP180;11328;53.928;18.522;2023-06-04T05:08:11;100994.00;;;13.60
22322;BMP180;11328;53.928;18.522;2023-06-04T05:10:38;101000.00;;;13.70
22322;BMP180;11328;53.928;18.522;2023-06-04T05:13:05;101011.00;;;13.90
22322;BMP180;11328;53.928;18.522;2023-06-04T05:15:33;101000.00;;;14.20
22322;BMP180;11328;53.928;18.522;2023-06-04T05:18:00;100999.00;;;14.30
22322;BMP180;11328;53.928;18.522;2023-06-04T05:20:30;100985.00;;;14.60
22322;BMP180;11328;53.928;18.522;2023-06-04T05:22:57;101005.00;;;14.70
22322;BMP180;11328;53.928;18.522;2023-06-04T05:25:24;101000.00;;;14.80
22322;BMP180;11328;53.928;18.522;2023-06-04T05:27:53;100998.00;;;15.00
22322;BMP180;11328;53.928;18.522;2023-06-04T05:30:21;100997.00;;;15.30
22322;BMP180;11328;53.928;18.522;2023-06-04T05:32:48;101000.00;;;15.40
22322;BMP180;11328;53.928;18.522;2023-06-04T05:35:17;100997.00;;;15.60
22322;BMP180;11328;53.928;18.522;2023-06-04T05:37:44;100996.00;;;15.90
22322;BMP180;11328;53.928;18.522;2023-06-04T05:40:12;101000.00;;;16.10
22322;BMP180;11328;53.928;18.522;2023-06-04T05:42:41;100997.00;;;16.10
22322;BMP180;11328;53.928;18.522;2023-06-04T05:45:08;101002.00;;;16.20
22322;BMP180;11328;53.928;18.522;2023-06-04T05:47:36;100995.00;;;16.30
22322;BMP180;11328;53.928;18.522;2023-06-04T05:50:04;101002.00;;;16.60
22322;BMP180;11328;53.928;18.522;2023-06-04T05:52:33;101000.00;;;17.00
22322;BMP180;11328;53.928;18.522;2023-06-04T05:55:01;100995.00;;;17.00
22322;BMP180;11328;53.928;18.522;2023-06-04T05:57:28;101000.00;;;17.40
22322;BMP180;11328;53.928;18.522;2023-06-04T05:59:55;100996.00;;;17.60
22322;BMP180;11328;53.928;18.522;2023-06-04T06:02:21;100999.00;;;17.90
22322;BMP180;11328;53.928;18.522;2023-06-04T06:04:48;101003.00;;;18.00
22322;BMP180;11328;53.928;18.522;2023-06-04T06:07:15;100998.00;;;18.20
22322;BMP180;11328;53.928;18.522;2023-06-04T06:09:42;100994.00;;;18.30
22322;BMP180;11328;53.928;18.522;2023-06-04T06:12:09;100995.00;;;18.30
22322;BMP180;11328;53.928;18.522;2023-06-04T06:14:36;101001.00;;;18.50
22322;BMP180;11328;53.928;18.522;2023-06-04T06:17:03;100999.00;;;18.60
22322;BMP180;11328;53.928;18.522;2023-06-04T06:19:31;101008.00;;;19.00
22322;BMP180;11328;53.928;18.522;2023-06-04T06:21:58;101006.00;;;19.20
22322;BMP180;11328;53.928;18.522;2023-06-04T06:24:25;101006.00;;;19.60
22322;BMP180;11328;53.928;18.522;2023-06-04T06:26:52;100999.00;;;19.70
22322;BMP180;11328;53.928;18.522;2023-06-04T06:29:19;101006.00;;;19.60
22322;BMP180;11328;53.928;18.522;2023-06-04T06:31:47;101014.00;;;19.70
22322;BMP180;11328;53.928;18.522;2023-06-04T06:34:14;101007.00;;;19.70
22322;BMP180;11328;53.928;18.522;2023-06-04T06:36:41;101004.00;;;20.00
22322;BMP180;11328;53.928;18.522;2023-06-04T06:39:09;101013.00;;;20.10
22322;BMP180;11328;53.928;18.522;2023-06-04T06:41:37;101011.00;;;20.40
22322;BMP180;11328;53.928;18.522;2023-06-04T06:44:07;101001.00;;;20.50
22322;BMP180;11328;53.928;18.522;2023-06-04T06:46:34;101013.00;;;20.70
22322;BMP180;11328;53.928;18.522;2023-06-04T06:49:01;101008.00;;;20.70
22322;BMP180;11328;53.928;18.522;2023-06-04T06:51:28;101006.00;;;20.90
22322;BMP180;11328;53.928;18.522;2023-06-04T06:53:55;101001.00;;;21.30
22322;BMP180;11328;53.928;18.522;2023-06-04T06:56:22;101006.00;;;21.70
22322;BMP180;11328;53.928;18.522;2023-06-04T06:58:49;101008.00;;;21.90
22322;BMP180;11328;53.928;18.522;2023-06-04T07:01:17;100997.00;;;22.30
22322;BMP180;11328;53.928;18.522;2023-06-04T07:03:44;101018.00;;;22.60
22322;BMP180;11328;53.928;18.522;2023-06-04T07:06:11;101007.00;;;22.40
22322;BMP180;11328;53.928;18.522;2023-06-04T07:08:39;101005.00;;;22.40
22322;BMP180;11328;53.928;18.522;2023-06-04T07:11:06;100999.00;;;22.50
22322;BMP180;11328;53.928;18.522;2023-06-04T07:13:34;101005.00;;;22.50
22322;BMP180;11328;53.928;18.522;2023-06-04T07:16:05;101012.00;;;22.60
22322;BMP180;11328;53.928;18.522;2023-06-04T07:18:33;101012.00;;;22.70
22322;BMP180;11328;53.928;18.522;2023-06-04T07:21:00;101012.00;;;22.70
22322;BMP180;11328;53.928;18.522;2023-06-04T07:23:27;101007.00;;;22.60
22322;BMP180;11328;53.928;18.522;2023-06-04T07:25:54;101017.00;;;22.80
22322;BMP180;11328;53.928;18.522;2023-06-04T07:28:21;101009.00;;;22.80
22322;BMP180;11328;53.928;18.522;2023-06-04T07:30:50;101016.00;;;23.30
22322;BMP180;11328;53.928;18.522;2023-06-04T07:33:17;101006.00;;;23.60
22322;BMP180;11328;53.928;18.522;2023-06-04T07:35:44;101004.00;;;23.90
22322;BMP180;11328;53.928;18.522;2023-06-04T07:38:11;101003.00;;;23.80
22322;BMP180;11328;53.928;18.522;2023-06-04T07:40:38;100999.00;;;23.90
22322;BMP180;11328;53.928;18.522;2023-06-04T07:43:05;101004.00;;;24.10
22322;BMP180;11328;53.928;18.522;2023-06-04T07:45:32;101006.00;;;24.20
22322;BMP180;11328;53.928;18.522;2023-06-04T07:48:02;101000.00;;;24.50
22322;BMP180;11328;53.928;18.522;2023-06-04T07:50:29;101006.00;;;24.90
22322;BMP180;11328;53.928;18.522;2023-06-04T07:53:00;101000.00;;;24.60
22322;BMP180;11328;53.928;18.522;2023-06-04T07:55:27;101007.00;;;24.30
22322;BMP180;11328;53.928;18.522;2023-06-04T07:57:54;101000.00;;;24.70
22322;BMP180;11328;53.928;18.522;2023-06-04T08:00:21;101003.00;;;25.10
22322;BMP180;11328;53.928;18.522;2023-06-04T08:02:48;101004.00;;;25.00
22322;BMP180;11328;53.928;18.522;2023-06-04T08:05:17;101005.00;;;25.60
22322;BMP180;11328;53.928;18.522;2023-06-04T08:07:45;101000.00;;;25.10
22322;BMP180;11328;53.928;18.522;2023-06-04T08:10:13;100991.00;;;25.00
22322;BMP180;11328;53.928;18.522;2023-06-04T08:12:40;101004.00;;;25.10
22322;BMP180;11328;53.928;18.522;2023-06-04T08:15:07;100998.00;;;25.30
22322;BMP180;11328;53.928;18.522;2023-06-04T08:17:34;100997.00;;;25.80
22322;BMP180;11328;53.928;18.522;2023-06-04T08:20:01;100995.00;;;25.90
22322;BMP180;11328;53.928;18.522;2023-06-04T08:22:29;100997.00;;;25.70
22322;BMP180;11328;53.928;18.522;2023-06-04T08:24:56;100998.00;;;26.20
22322;BMP180;11328;53.928;18.522;2023-06-04T08:27:23;101002.00;;;26.00
22322;BMP180;11328;53.928;18.522;2023-06-04T08:29:50;100997.00;;;26.20
22322;BMP180;11328;53.928;18.522;2023-06-04T08:32:19;101004.00;;;26.30
22322;BMP180;11328;53.928;18.522;2023-06-04T08:34:46;101003.00;;;26.20
22322;BMP180;11328;53.928;18.522;2023-06-04T08:37:13;100999.00;;;25.90
22322;BMP180;11328;53.928;18.522;2023-06-04T08:39:40;100995.00;;;25.70
22322;BMP180;11328;53.928;18.522;2023-06-04T08:42:18;100999.00;;;26.20
22322;BMP180;11328;53.928;18.522;2023-06-04T08:44:51;101004.00;;;26.30
22322;BMP180;11328;53.928;18.522;2023-06-04T08:47:28;101007.00;;;26.20
22322;BMP180;11328;53.928;18.522;2023-06-04T08:49:59;101013.00;;;25.90
22322;BMP180;11328;53.928;18.522;2023-06-04T08:52:29;101011.00;;;26.10
22322;BMP180;11328;53.928;18.522;2023-06-04T08:54:57;101017.00;;;26.20
22322;BMP180;11328;53.928;18.522;2023-06-04T08:57:25;101013.00;;;26.40
22322;BMP180;11328;53.928;18.522;2023-06-04T08:59:52;101027.00;;;26.40
22322;BMP180;11328;53.928;18.522;2023-06-04T09:02:20;101022.00;;;26.10
22322;BMP180;11328;53.928;18.522;2023-06-04T09:04:47;101021.00;;;24.90
22322;BMP180;11328;53.928;18.522;2023-06-04T09:07:16;101008.00;;;24.80
22322;BMP180;11328;53.928;18.522;2023-06-04T09:09:46;101033.00;;;24.50
22322;BMP180;11328;53.928;18.522;2023-06-04T09:12:28;101029.00;;;24.60
22322;BMP180;11328;53.928;18.522;2023-06-04T09:14:57;101015.00;;;25.30
22322;BMP180;11328;53.928;18.522;2023-06-04T09:17:25;101016.00;;;26.00
22322;BMP180;11328;53.928;18.522;2023-06-04T09:19:52;101012.00;;;26.40
22322;BMP180;11328;53.928;18.522;2023-06-04T09:22:19;101017.00;;;25.40
22322;BMP180;11328;53.928;18.522;2023-06-04T09:24:47;101005.00;;;25.20
22322;BMP180;11328;53.928;18.522;2023-06-04T09:27:20;101007.00;;;25.50
22322;BMP180;11328;53.928;18.522;2023-06-04T09:29:50;101003.00;;;26.30
22322;BMP180;11328;53.928;18.522;2023-06-04T09:32:25;101019.00;;;26.60
22322;BMP180;11328;53.928;18.522;2023-06-04T09:34:55;101005.00;;;26.30
22322;BMP180;11328;53.928;18.522;2023-06-04T09:37:23;101002.00;;;26.80
22322;BMP180;11328;53.928;18.522;2023-06-04T09:39:57;101006.00;;;26.90
22322;BMP180;11328;53.928;18.522;2023-06-04T09:42:24;101000.00;;;26.70
22322;BMP180;11328;53.928;18.522;2023-06-04T09:44:51;100995.00;;;27.00
22322;BMP180;11328;53.928;18.522;2023-06-04T09:47:18;100999.00;;;27.00
22322;BMP180;11328;53.928;18.522;2023-06-04T09:49:49;101005.00;;;26.50
22322;BMP180;11328;53.928;18.522;2023-06-04T09:52:17;100999.00;;;25.90
22322;BMP180;11328;53.928;18.522;2023-06-04T09:54:44;101006.00;;;26.20
22322;BMP180;11328;53.928;18.522;2023-06-04T09:57:18;100990.00;;;26.10
22322;BMP180;11328;53.928;18.522;2023-06-04T09:59:49;101007.00;;;26.50
22322;BMP180;11328;53.928;18.522;2023-06-04T10:02:21;100999.00;;;27.10
22322;BMP180;11328;53.928;18.522;2023-06-04T10:04:55;101006.00;;;27.50
22322;BMP180;11328;53.928;18.522;2023-06-04T10:07:25;100999.00;;;27.50
22322;BMP180;11328;53.928;18.522;2023-06-04T10:09:53;100997.00;;;27.50
22322;BMP180;11328;53.928;18.522;2023-06-04T10:12:31;101000.00;;;27.80
22322;BMP180;11328;53.928;18.522;2023-06-04T10:15:10;100995.00;;;27.80
22322;BMP180;11328;53.928;18.522;2023-06-04T10:17:39;100998.00;;;27.90
22322;BMP180;11328;53.928;18.522;2023-06-04T10:20:07;100992.00;;;27.80
22322;BMP180;11328;53.928;18.522;2023-06-04T10:22:37;100998.00;;;28.00
22322;BMP180;11328;53.928;18.522;2023-06-04T10:25:05;100982.00;;;27.70
22322;BMP180;11328;53.928;18.522;2023-06-04T10:27:33;101003.00;;;27.80
22322;BMP180;11328;53.928;18.522;2023-06-04T10:30:04;100992.00;;;27.80
22322;BMP180;11328;53.928;18.522;2023-06-04T10:32:32;100991.00;;;28.20
22322;BMP180;11328;53.928;18.522;2023-06-04T10:35:04;100990.00;;;28.20
22322;BMP180;11328;53.928;18.522;2023-06-04T10:37:33;100988.00;;;27.30
22322;BMP180;11328;53.928;18.522;2023-06-04T10:40:01;100985.00;;;27.10
22322;BMP180;11328;53.928;18.522;2023-06-04T10:42:42;100990.00;;;26.90
22322;BMP180;11328;53.928;18.522;2023-06-04T10:45:10;100992.00;;;27.10
22322;BMP180;11328;53.928;18.522;2023-06-04T10:47:37;100990.00;;;27.50
22322;BMP180;11328;53.928;18.522;2023-06-04T10:50:13;100991.00;;;27.40
22322;BMP180;11328;53.928;18.522;2023-06-04T10:52:54;100985.00;;;27.60
22322;BMP180;11328;53.928;18.522;2023-06-04T10:55:23;100984.00;;;28.10
22322;BMP180;11328;53.928;18.522;2023-06-04T10:57:59;100969.00;;;28.50
22322;BMP180;11328;53.928;18.522;2023-06-04T11:00:42;100983.00;;;28.20
22322;BMP180;11328;53.928;18.522;2023-06-04T11:03:11;100983.00;;;28.10
22322;BMP180;11328;53.928;18.522;2023-06-04T11:05:41;100976.00;;;27.40
22322;BMP180;11328;53.928;18.522;2023-06-04T11:08:10;100978.00;;;27.60
22322;BMP180;11328;53.928;18.522;2023-06-04T11:10:43;100981.00;;;28.00
22322;BMP180;11328;53.928;18.522;2023-06-04T11:13:10;100983.00;;;28.40
22322;BMP180;11328;53.928;18.522;2023-06-04T11:15:46;100979.00;;;28.80
22322;BMP180;11328;53.928;18.522;2023-06-04T11:18:18;100982.00;;;28.60
22322;BMP180;11328;53.928;18.522;2023-06-04T11:20:48;100984.00;;;28.20
22322;BMP180;11328;53.928;18.522;2023-06-04T11:23:16;100974.00;;;28.60
22322;BMP180;11328;53.928;18.522;2023-06-04T11:25:45;100985.00;;;28.60
22322;BMP180;11328;53.928;18.522;2023-06-04T11:28:18;100965.00;;;28.60
22322;BMP180;11328;53.928;18.522;2023-06-04T11:31:00;100983.00;;;28.80
22322;BMP180;11328;53.928;18.522;2023-06-04T11:33:45;100975.00;;;28.60
22322;BMP180;11328;53.928;18.522;2023-06-04T11:36:27;100975.00;;;28.60
22322;BMP180;11328;53.928;18.522;2023-06-04T11:39:02;100970.00;;;28.20
22322;BMP180;11328;53.928;18.522;2023-06-04T11:41:32;100970.00;;;27.70
22322;BMP180;11328;53.928;18.522;2023-06-04T11:44:05;100969.00;;;28.00
22322;BMP180;11328;53.928;18.522;2023-06-04T11:46:41;100975.00;;;27.70
22322;BMP180;11328;53.928;18.522;2023-06-04T11:49:11;100972.00;;;27.90
22322;BMP180;11328;53.928;18.522;2023-06-04T11:51:38;100972.00;;;27.60
22322;BMP180;11328;53.928;18.522;2023-06-04T11:54:05;100970.00;;;27.70
22322;BMP180;11328;53.928;18.522;2023-06-04T11:56:41;100974.00;;;28.00
22322;BMP180;11328;53.928;18.522;2023-06-04T11:59:15;100976.00;;;27.90
22322;BMP180;11328;53.928;18.522;2023-06-04T12:01:44;100973.00;;;28.20
22322;BMP180;11328;53.928;18.522;2023-06-04T12:06:54;100964.00;;;28.40
22322;BMP180;11328;53.928;18.522;2023-06-04T12:09:26;100968.00;;;28.90
22322;BMP180;11328;53.928;18.522;2023-06-04T12:12:01;100961.00;;;29.00
22322;BMP180;11328;53.928;18.522;2023-06-04T12:14:30;100944.00;;;28.90
22322;BMP180;11328;53.928;18.522;2023-06-04T12:17:02;100957.00;;;28.90
22322;BMP180;11328;53.928;18.522;2023-06-04T12:19:33;100961.00;;;29.00
22322;BMP180;11328;53.928;18.522;2023-06-04T12:22:07;100965.00;;;29.10
22322;BMP180;11328;53.928;18.522;2023-06-04T12:24:49;100963.00;;;29.10
22322;BMP180;11328;53.928;18.522;2023-06-04T12:27:24;100952.00;;;28.70
22322;BMP180;11328;53.928;18.522;2023-06-04T12:30:00;100958.00;;;28.40
22322;BMP180;11328;53.928;18.522;2023-06-04T12:32:28;100955.00;;;28.40
22322;BMP180;11328;53.928;18.522;2023-06-04T12:34:56;100958.00;;;28.70
22322;BMP180;11328;53.928;18.522;2023-06-04T12:37:23;100962.00;;;28.90
22322;BMP180;11328;53.928;18.522;2023-06-04T12:39:56;100960.00;;;29.10
22322;BMP180;11328;53.928;18.522;2023-06-04T12:42:23;100963.00;;;29.10
22322;BMP180;11328;53.928;18.522;2023-06-04T12:44:50;100967.00;;;29.00
22322;BMP180;11328;53.928;18.522;2023-06-04T12:47:17;100969.00;;;29.20
22322;BMP180;11328;53.928;18.522;2023-06-04T12:49:45;100967.00;;;29.10
22322;BMP180;11328;53.928;18.522;2023-06-04T12:52:13;100971.00;;;29.20
22322;BMP180;11328;53.928;18.522;2023-06-04T12:54:43;100971.00;;;29.20
22322;BMP180;11328;53.928;18.522;2023-06-04T12:57:10;100957.00;;;29.40
22322;BMP180;11328;53.928;18.522;2023-06-04T12:59:37;100961.00;;;29.60
22322;BMP180;11328;53.928;18.522;2023-06-04T13:02:04;100969.00;;;29.70
22322;BMP180;11328;53.928;18.522;2023-06-04T13:04:31;100965.00;;;29.70
22322;BMP180;11328;53.928;18.522;2023-06-04T13:06:58;100959.00;;;29.10
22322;BMP180;11328;53.928;18.522;2023-06-04T13:09:27;100958.00;;;28.30
22322;BMP180;11328;53.928;18.522;2023-06-04T13:11:58;100958.00;;;27.40
22322;BMP180;11328;53.928;18.522;2023-06-04T13:14:25;100962.00;;;27.80
22322;BMP180;11328;53.928;18.522;2023-06-04T13:16:52;100967.00;;;28.00
22322;BMP180;11328;53.928;18.522;2023-06-04T13:19:19;100965.00;;;28.20
22322;BMP180;11328;53.928;18.522;2023-06-04T13:21:47;100963.00;;;27.80
22322;BMP180;11328;53.928;18.522;2023-06-04T13:24:14;100964.00;;;27.50
22322;BMP180;11328;53.928;18.522;2023-06-04T13:26:42;100969.00;;;27.20
22322;BMP180;11328;53.928;18.522;2023-06-04T13:29:09;100979.00;;;26.80
22322;BMP180;11328;53.928;18.522;2023-06-04T13:31:37;100968.00;;;26.80
22322;BMP180;11328;53.928;18.522;2023-06-04T13:34:06;100967.00;;;26.80
22322;BMP180;11328;53.928;18.522;2023-06-04T13:36:52;100960.00;;;27.00
22322;BMP180;11328;53.928;18.522;2023-06-04T13:39:19;100964.00;;;27.40
22322;BMP180;11328;53.928;18.522;2023-06-04T13:41:46;100964.00;;;27.80
22322;BMP180;11328;53.928;18.522;2023-06-04T13:44:13;100960.00;;;28.00
22322;BMP180;11328;53.928;18.522;2023-06-04T13:46:41;100954.00;;;28.10
22322;BMP180;11328;53.928;18.522;2023-06-04T13:49:09;100949.00;;;28.10
22322;BMP180;11328;53.928;18.522;2023-06-04T13:51:36;100946.00;;;27.70
22322;BMP180;11328;53.928;18.522;2023-06-04T13:54:03;100953.00;;;27.70
22322;BMP180;11328;53.928;18.522;2023-06-04T13:56:30;100947.00;;;27.50
22322;BMP180;11328;53.928;18.522;2023-06-04T13:58:57;100947.00;;;27.40
22322;BMP180;11328;53.928;18.522;2023-06-04T14:01:24;100951.00;;;27.50
22322;BMP180;11328;53.928;18.522;2023-06-04T14:03:51;100939.00;;;27.60
22322;BMP180;11328;53.928;18.522;2023-06-04T14:06:19;100942.00;;;27.80
22322;BMP180;11328;53.928;18.522;2023-06-04T14:08:46;100933.00;;;27.70